createdAt,value
2023-05-20T00:00:19.703Z,102121.31
2023-05-20T00:03:06.041Z,102102.13
2023-05-20T00:05:53.868Z,102105.50
2023-05-20T00:08:39.976Z,102103.31
2023-05-20T00:11:26.268Z,102098.75
2023-05-20T00:14:12.314Z,102093.63
2023-05-20T00:16:58.439Z,102086.38
2023-05-20T00:19:44.815Z,102088.22
2023-05-20T00:22:32.164Z,102083.78
2023-05-20T00:25:18.447Z,102085.63
2023-05-20T00:28:06.055Z,102085.56
2023-05-20T00:30:52.294Z,102085.19
2023-05-20T00:33:38.669Z,102086.22
2023-05-20T00:36:24.784Z,102082.38
2023-05-20T00:39:12.079Z,102079.09
2023-05-20T00:42:00.524Z,102089.63
2023-05-20T00:44:46.632Z,102077.41
2023-05-20T00:47:34.727Z,102082.50
2023-05-20T00:50:21.596Z,102081.72
2023-05-20T00:53:08.219Z,102076.38
2023-05-20T00:55:55.637Z,102080.22
2023-05-20T00:58:41.842Z,102085.72
2023-05-20T01:01:28.378Z,102084.88
2023-05-20T01:04:14.427Z,102082.56
2023-05-20T01:07:02.248Z,102081.78
2023-05-20T01:09:48.448Z,102088.06
2023-05-20T01:12:38.639Z,102081.78
2023-05-20T01:15:26.094Z,102080.53
2023-05-20T01:18:13.127Z,102074.97
2023-05-20T01:21:02.366Z,102075.72
2023-05-20T01:23:49.857Z,102075.13
2023-05-20T01:26:38.414Z,102074.25
2023-05-20T01:29:24.452Z,102076.22
2023-05-20T01:32:12.934Z,102070.91
2023-05-20T01:34:59.969Z,102068.44
2023-05-20T01:37:47.203Z,102068.00
2023-05-20T01:40:35.318Z,102077.34
2023-05-20T01:43:22.013Z,102066.09
2023-05-20T01:46:08.236Z,102069.06
2023-05-20T01:48:54.439Z,102066.31
2023-05-20T01:51:40.456Z,102065.47
2023-05-20T01:54:26.697Z,102062.91
2023-05-20T01:57:14.170Z,102057.44
2023-05-20T02:00:00.168Z,102056.44
2023-05-20T02:02:46.513Z,102061.50
2023-05-20T02:05:33.111Z,102060.09
2023-05-20T02:08:19.617Z,102065.66
2023-05-20T02:11:05.811Z,102059.94
2023-05-20T02:13:53.311Z,102060.66
2023-05-20T02:16:39.794Z,102061.50
2023-05-20T02:19:26.285Z,102067.53
2023-05-20T02:22:12.761Z,102063.97
2023-05-20T02:24:59.106Z,102065.84
2023-05-20T02:27:45.066Z,102061.31
2023-05-20T02:30:32.407Z,102060.66
2023-05-20T02:33:18.596Z,102063.00
2023-05-20T02:36:05.667Z,102063.84
2023-05-20T02:38:54.592Z,102066.03
2023-05-20T02:41:40.633Z,102062.66
2023-05-20T02:44:26.527Z,102062.00
2023-05-20T02:47:16.235Z,102064.69
2023-05-20T02:50:03.263Z,102069.56
2023-05-20T02:52:49.823Z,102070.25
2023-05-20T02:55:36.684Z,102059.31
2023-05-20T02:58:27.610Z,102057.97
2023-05-20T03:01:14.000Z,102061.50
2023-05-20T03:04:02.497Z,102051.72
2023-05-20T03:06:48.603Z,102057.97
2023-05-20T03:09:35.578Z,102051.91
2023-05-20T03:12:21.616Z,102054.78
2023-05-20T03:15:09.704Z,102054.09
2023-05-20T03:17:56.797Z,102057.31
2023-05-20T03:20:44.505Z,102056.47
2023-05-20T03:23:31.074Z,102062.50
2023-05-20T03:26:16.989Z,102068.41
2023-05-20T03:29:03.034Z,102069.72
2023-05-20T03:31:49.466Z,102072.28
2023-05-20T03:34:35.856Z,102076.81
2023-05-20T03:37:23.650Z,102069.06
2023-05-20T03:40:11.245Z,102068.84
2023-05-20T03:42:58.856Z,102074.44
2023-05-20T03:45:44.864Z,102071.41
2023-05-20T03:48:32.701Z,102078.50
2023-05-20T03:51:19.020Z,102071.09
2023-05-20T03:54:08.414Z,102071.09
2023-05-20T03:56:54.988Z,102076.47
2023-05-20T03:59:41.119Z,102084.22
2023-05-20T04:02:27.471Z,102083.88
2023-05-20T04:05:13.994Z,102081.00
2023-05-20T04:08:01.073Z,102076.81
2023-05-20T04:10:48.557Z,102074.81
2023-05-20T04:13:34.624Z,102059.50
2023-05-20T04:16:20.972Z,102069.91
2023-05-20T04:19:07.168Z,102071.09
2023-05-20T04:21:53.394Z,102061.50
2023-05-20T04:24:39.694Z,102063.03
2023-05-20T04:27:26.992Z,102064.72
2023-05-20T04:30:13.838Z,102062.16
2023-05-20T04:33:03.182Z,102056.97
2023-05-20T04:35:49.249Z,102053.94
2023-05-20T04:38:35.942Z,102061.34
2023-05-20T04:41:21.749Z,102065.34
2023-05-20T04:44:09.461Z,102064.72
2023-05-20T04:46:55.442Z,102053.94
2023-05-20T04:49:41.369Z,102061.84
2023-05-20T04:52:27.503Z,102056.47
2023-05-20T04:55:15.847Z,102060.13
2023-05-20T04:58:02.112Z,102053.59
2023-05-20T05:00:49.916Z,102052.06
2023-05-20T05:03:36.738Z,102061.50
2023-05-20T05:06:23.256Z,102056.47
2023-05-20T05:09:09.769Z,102060.41
2023-05-20T05:11:58.525Z,102054.25
2023-05-20T05:14:45.028Z,102052.72
2023-05-20T05:17:32.752Z,102055.59
2023-05-20T05:20:19.482Z,102057.63
2023-05-20T05:23:06.012Z,102059.59
2023-05-20T05:25:52.891Z,102051.56
2023-05-20T05:28:42.024Z,102055.84
2023-05-20T05:31:27.989Z,102051.06
2023-05-20T05:34:15.021Z,102043.16
2023-05-20T05:37:01.026Z,102040.06
2023-05-20T05:39:47.663Z,102039.41
2023-05-20T05:42:33.994Z,102037.41
2023-05-20T05:45:20.826Z,102030.38
2023-05-20T05:48:07.440Z,102039.28
2023-05-20T05:50:55.513Z,102039.09
2023-05-20T05:53:41.884Z,102033.00
2023-05-20T05:56:27.766Z,102041.75
2023-05-20T05:59:16.980Z,102040.81
2023-05-20T06:02:03.112Z,102044.31
2023-05-20T06:04:49.576Z,102037.78
2023-05-20T06:07:37.886Z,102030.72
2023-05-20T06:10:24.118Z,102040.06
2023-05-20T06:13:10.428Z,102040.84
2023-05-20T06:15:56.570Z,102047.69
2023-05-20T06:18:45.021Z,102041.56
2023-05-20T06:21:32.529Z,102041.34
2023-05-20T06:24:21.000Z,102046.88
2023-05-20T06:27:08.193Z,102045.72
2023-05-20T06:29:54.760Z,102043.19
2023-05-20T06:32:42.152Z,102036.06
2023-05-20T06:35:28.405Z,102040.97
2023-05-20T06:38:14.330Z,102036.19
2023-05-20T06:41:02.132Z,102041.75
2023-05-20T06:43:50.506Z,102038.59
2023-05-20T06:46:58.388Z,102034.16
2023-05-20T06:49:47.159Z,102035.91
2023-05-20T06:52:33.523Z,102042.31
2023-05-20T06:55:19.936Z,102042.56
2023-05-20T06:58:08.014Z,102038.97
2023-05-20T07:00:54.229Z,102032.34
2023-05-20T07:03:40.636Z,102025.69
2023-05-20T07:06:27.053Z,102028.66
2023-05-20T07:09:13.481Z,102019.50
2023-05-20T07:12:00.763Z,102023.06
2023-05-20T07:14:48.366Z,102014.75
2023-05-20T07:17:35.055Z,102015.16
2023-05-20T07:20:21.593Z,102015.50
2023-05-20T07:23:08.479Z,102009.16
2023-05-20T07:26:00.510Z,102008.22
2023-05-20T07:28:47.172Z,102003.81
2023-05-20T07:31:35.006Z,102002.53
2023-05-20T07:34:22.616Z,101997.50
2023-05-20T07:37:10.000Z,101992.13
2023-05-20T07:39:56.533Z,101995.06
2023-05-20T07:42:42.492Z,101990.28
2023-05-20T07:45:29.370Z,101996.38
2023-05-20T07:48:16.624Z,102001.31
2023-05-20T07:51:02.920Z,101997.06
2023-05-20T07:53:49.564Z,101991.63
2023-05-20T07:56:36.100Z,101990.91
2023-05-20T07:59:22.319Z,101986.94
2023-05-20T08:02:09.662Z,101981.31
2023-05-20T08:04:57.270Z,101980.22
2023-05-20T08:07:43.170Z,101978.56
2023-05-20T08:10:30.123Z,101982.06
2023-05-20T08:13:17.077Z,101974.09
2023-05-20T08:16:04.870Z,101970.88
2023-05-20T08:18:51.146Z,101976.09
2023-05-20T08:21:41.216Z,101970.63
2023-05-20T08:24:27.635Z,101970.84
2023-05-20T08:27:14.702Z,101957.00
2023-05-20T08:30:02.216Z,101949.84
2023-05-20T08:32:49.555Z,101953.09
2023-05-20T08:35:36.400Z,101952.31
2023-05-20T08:38:23.588Z,101955.88
2023-05-20T08:41:09.736Z,101954.81
2023-05-20T08:43:58.390Z,101955.78
2023-05-20T08:46:46.749Z,101950.50
2023-05-20T08:49:33.234Z,101959.97
2023-05-20T08:52:22.242Z,101953.25
2023-05-20T08:55:11.340Z,101959.06
2023-05-20T08:57:58.109Z,101957.13
2023-05-20T09:00:44.187Z,101960.59
2023-05-20T09:03:30.514Z,101957.88
2023-05-20T09:06:18.210Z,101959.41
2023-05-20T09:09:04.907Z,101949.28
2023-05-20T09:11:52.277Z,101942.34
2023-05-20T09:14:38.571Z,101951.66
2023-05-20T09:17:25.416Z,101957.19
2023-05-20T09:20:12.726Z,101949.78
2023-05-20T09:23:02.938Z,101955.84
2023-05-20T09:25:51.053Z,101954.06
2023-05-20T09:28:40.907Z,101959.31
2023-05-20T09:31:28.049Z,101951.50
2023-05-20T09:34:14.357Z,101946.75
2023-05-20T09:37:01.626Z,101951.34
2023-05-20T09:39:59.538Z,101948.28
2023-05-20T09:42:49.199Z,101942.19
2023-05-20T09:45:36.682Z,101938.91
2023-05-20T09:48:23.244Z,101939.94
2023-05-20T09:51:09.679Z,101946.13
2023-05-20T09:53:56.904Z,101945.75
2023-05-20T09:56:42.885Z,101940.72
2023-05-20T09:59:29.629Z,101933.09
2023-05-20T10:02:17.199Z,101939.94
2023-05-20T10:05:06.144Z,101939.72
2023-05-20T10:08:13.447Z,101943.91
2023-05-20T10:11:06.790Z,101950.50
2023-05-20T10:14:09.026Z,101949.81
2023-05-20T10:16:59.039Z,101942.44
2023-05-20T10:19:46.739Z,101949.75
2023-05-20T10:22:32.914Z,101950.16
2023-05-20T10:25:26.495Z,101940.34
2023-05-20T10:28:12.628Z,101943.66
2023-05-20T10:30:59.296Z,101948.91
2023-05-20T10:33:47.156Z,101947.22
2023-05-20T10:36:35.020Z,101944.50
2023-05-20T10:39:27.213Z,101938.44
2023-05-20T10:42:13.499Z,101937.84
2023-05-20T10:44:59.486Z,101940.38
2023-05-20T10:47:55.714Z,101940.34
2023-05-20T10:50:41.847Z,101937.25
2023-05-20T10:53:33.310Z,101933.28
2023-05-20T10:56:21.429Z,101928.69
2023-05-20T10:59:08.027Z,101934.31
2023-05-20T11:01:54.770Z,101927.81
2023-05-20T11:04:40.892Z,101926.06
2023-05-20T11:07:28.384Z,101930.53
2023-05-20T11:10:15.935Z,101926.97
2023-05-20T11:13:03.385Z,101917.59
2023-05-20T11:15:50.299Z,101917.38
2023-05-20T11:18:36.767Z,101911.53
2023-05-20T11:21:22.628Z,101915.69
2023-05-20T11:24:08.576Z,101917.34
2023-05-20T11:26:57.460Z,101899.53
2023-05-20T11:29:43.955Z,101889.28
2023-05-20T11:32:29.931Z,101894.00
2023-05-20T11:35:24.336Z,101884.66
2023-05-20T11:38:10.378Z,101879.59
2023-05-20T11:40:57.094Z,101881.53
2023-05-20T11:43:44.675Z,101876.25
2023-05-20T11:46:30.722Z,101875.69
2023-05-20T11:49:17.717Z,101874.97
2023-05-20T11:52:04.389Z,101870.31
2023-05-20T11:54:53.798Z,101867.63
2023-05-20T11:57:39.899Z,101862.66
2023-05-20T12:00:31.206Z,101866.34
2023-05-20T12:03:20.314Z,101855.06
2023-05-20T12:06:06.750Z,101848.47
2023-05-20T12:08:52.982Z,101841.19
2023-05-20T12:11:41.056Z,101831.81
2023-05-20T12:14:27.432Z,101830.91
2023-05-20T12:17:14.732Z,101816.88
2023-05-20T12:20:01.033Z,101816.59
2023-05-20T12:22:47.141Z,101807.75
2023-05-20T12:25:33.415Z,101824.44
2023-05-20T12:28:19.493Z,101816.59
2023-05-20T12:31:05.982Z,101812.66
2023-05-20T12:33:53.672Z,101823.75
2023-05-20T12:36:40.159Z,101817.69
2023-05-20T12:39:27.016Z,101805.13
2023-05-20T12:42:13.392Z,101803.34
2023-05-20T12:44:59.350Z,101802.16
2023-05-20T12:47:45.737Z,101803.16
2023-05-20T12:50:33.669Z,101798.56
2023-05-20T12:53:19.695Z,101794.94
2023-05-20T12:56:07.910Z,101793.75
2023-05-20T12:58:54.114Z,101785.69
2023-05-20T13:01:40.819Z,101790.59
2023-05-20T13:04:26.901Z,101794.34
2023-05-20T13:07:14.058Z,101790.00
2023-05-20T13:10:00.532Z,101799.88
2023-05-20T13:12:46.792Z,101784.44
2023-05-20T13:15:33.452Z,101777.19
2023-05-20T13:18:19.973Z,101787.00
2023-05-20T13:21:06.367Z,101774.78
2023-05-20T13:23:53.750Z,101768.28
2023-05-20T13:26:39.688Z,101776.38
2023-05-20T13:29:26.458Z,101779.75
2023-05-20T13:32:12.857Z,101771.44
2023-05-20T13:34:59.616Z,101766.84
2023-05-20T13:37:45.677Z,101768.69
2023-05-20T13:40:33.449Z,101761.69
2023-05-20T13:43:19.565Z,101758.78
2023-05-20T13:46:05.953Z,101759.22
2023-05-20T13:48:52.122Z,101758.84
2023-05-20T13:51:38.005Z,101771.00
2023-05-20T13:54:23.919Z,101751.03
2023-05-20T13:57:11.314Z,101759.22
2023-05-20T13:59:57.134Z,101758.84
2023-05-20T14:02:43.039Z,101754.72
2023-05-20T14:05:29.556Z,101754.25
2023-05-20T14:08:15.407Z,101757.97
2023-05-20T14:11:01.654Z,101751.09
2023-05-20T14:13:48.951Z,101754.63
2023-05-20T14:16:34.940Z,101751.09
2023-05-20T14:19:21.375Z,101747.47
2023-05-20T14:22:07.730Z,101744.84
2023-05-20T14:24:53.774Z,101742.72
2023-05-20T14:27:39.709Z,101746.22
2023-05-20T14:30:27.507Z,101741.16
2023-05-20T14:33:13.281Z,101743.22
2023-05-20T14:35:59.745Z,101741.38
2023-05-20T14:38:47.557Z,101732.84
2023-05-20T14:41:34.514Z,101734.59
2023-05-20T14:44:20.785Z,101737.50
2023-05-20T14:47:08.389Z,101727.75
2023-05-20T14:49:54.708Z,101727.06
2023-05-20T14:52:40.767Z,101719.94
2023-05-20T14:55:26.755Z,101720.25
2023-05-20T14:58:13.102Z,101715.38
2023-05-20T15:00:59.085Z,101722.44
2023-05-20T15:03:47.061Z,101717.94
2023-05-20T15:06:34.937Z,101716.88
2023-05-20T15:09:21.150Z,101704.03
2023-05-20T15:12:07.548Z,101708.31
2023-05-20T15:14:53.755Z,101704.75
2023-05-20T15:17:39.797Z,101708.66
2023-05-20T15:20:27.736Z,101707.34
2023-05-20T15:23:13.978Z,101715.53
2023-05-20T15:25:59.738Z,101720.59
2023-05-20T15:28:45.632Z,101708.78
2023-05-20T15:31:31.700Z,101713.00
2023-05-20T15:34:17.529Z,101709.78
2023-05-20T15:37:04.822Z,101707.00
2023-05-20T15:39:50.941Z,101700.59
2023-05-20T15:42:37.053Z,101703.06
2023-05-20T15:45:23.093Z,101698.44
2023-05-20T15:48:09.468Z,101687.25
2023-05-20T15:50:55.720Z,101687.41
2023-05-20T15:53:43.307Z,101684.97
2023-05-20T15:56:29.908Z,101684.81
2023-05-20T15:59:15.854Z,101677.41
2023-05-20T16:02:02.305Z,101674.44
2023-05-20T16:04:48.749Z,101683.78
2023-05-20T16:07:34.743Z,101671.25
2023-05-20T16:10:23.967Z,101676.88
2023-05-20T16:13:12.016Z,101671.66
2023-05-20T16:15:58.428Z,101671.59
2023-05-20T16:18:44.717Z,101668.50
2023-05-20T16:21:31.190Z,101660.59
2023-05-20T16:24:17.608Z,101656.56
2023-05-20T16:27:05.753Z,101650.44
2023-05-20T16:29:51.534Z,101650.06
2023-05-20T16:32:37.536Z,101639.09
2023-05-20T16:35:23.967Z,101647.53
2023-05-20T16:38:10.204Z,101647.09
2023-05-20T16:40:56.375Z,101649.47
2023-05-20T16:43:43.684Z,101639.31
2023-05-20T16:46:29.647Z,101649.38
2023-05-20T16:49:15.901Z,101655.09
2023-05-20T16:52:02.008Z,101646.13
2023-05-20T16:54:48.222Z,101641.31
2023-05-20T16:57:35.071Z,101646.75
2023-05-20T17:00:22.823Z,101641.13
2023-05-20T17:03:09.121Z,101636.22
2023-05-20T17:05:55.814Z,101631.91
2023-05-20T17:08:41.702Z,101636.06
2023-05-20T17:11:27.709Z,101629.34
2023-05-20T17:14:13.711Z,101627.16
2023-05-20T17:17:01.124Z,101635.38
2023-05-20T17:19:47.355Z,101632.72
2023-05-20T17:22:33.181Z,101636.59
2023-05-20T17:25:19.015Z,101630.78
2023-05-20T17:28:05.410Z,101642.03
2023-05-20T17:30:51.685Z,101633.50
2023-05-20T17:33:39.940Z,101628.44
2023-05-20T17:36:26.492Z,101625.84
2023-05-20T17:39:13.618Z,101627.69
2023-05-20T17:41:59.491Z,101627.69
2023-05-20T17:44:46.470Z,101631.00
2023-05-20T17:47:32.634Z,101626.63
2023-05-20T17:50:20.372Z,101626.03
2023-05-20T17:53:06.569Z,101627.97
2023-05-20T17:55:52.382Z,101626.03
2023-05-20T17:58:38.355Z,101627.38
2023-05-20T18:01:24.666Z,101620.09
2023-05-20T18:04:11.006Z,101617.34
2023-05-20T18:06:58.724Z,101618.84
2023-05-20T18:09:45.044Z,101618.69
2023-05-20T18:12:31.394Z,101626.53
2023-05-20T18:15:18.313Z,101629.00
2023-05-20T18:18:04.434Z,101628.75
2023-05-20T18:20:50.895Z,101634.41
2023-05-20T18:23:38.250Z,101632.91
2023-05-20T18:26:24.598Z,101639.19
2023-05-20T18:29:12.359Z,101635.06
2023-05-20T18:31:58.593Z,101637.81
2023-05-20T18:34:45.123Z,101627.53
2023-05-20T18:37:31.412Z,101634.34
2023-05-20T18:40:20.488Z,101634.34
2023-05-20T18:43:06.638Z,101632.53
2023-05-20T18:45:52.609Z,101640.06
2023-05-20T18:48:38.937Z,101636.59
2023-05-20T18:51:25.679Z,101641.34
2023-05-20T18:54:11.796Z,101641.28
2023-05-20T18:56:59.088Z,101638.94
2023-05-20T18:59:45.132Z,101644.66
2023-05-20T19:02:31.041Z,101635.22
2023-05-20T19:05:16.983Z,101636.28
2023-05-20T19:08:05.868Z,101635.44
2023-05-20T19:10:51.764Z,101638.94
2023-05-20T19:13:38.977Z,101639.63
2023-05-20T19:16:26.095Z,101637.84
2023-05-20T19:19:12.521Z,101627.69
2023-05-20T19:21:58.467Z,101631.56
2023-05-20T19:24:44.814Z,101633.22
2023-05-20T19:27:30.789Z,101638.84
2023-05-20T19:30:18.093Z,101630.91
2023-05-20T19:33:05.461Z,101624.38
2023-05-20T19:35:51.470Z,101630.91
2023-05-20T19:38:38.774Z,101637.38
2023-05-20T19:41:24.996Z,101646.00
2023-05-20T19:44:11.759Z,101641.31
2023-05-20T19:46:59.624Z,101645.63
2023-05-20T19:49:45.717Z,101648.16
2023-05-20T19:52:32.136Z,101640.91
2023-05-20T19:55:18.381Z,101654.72
2023-05-20T19:58:04.354Z,101657.59
2023-05-20T20:00:50.596Z,101644.81
2023-05-20T20:03:37.886Z,101648.75
2023-05-20T20:06:23.804Z,101642.25
2023-05-20T20:09:10.464Z,101650.16
2023-05-20T20:11:56.497Z,101644.06
2023-05-20T20:14:42.465Z,101645.63
2023-05-20T20:17:30.200Z,101642.47
2023-05-20T20:20:18.443Z,101647.28
2023-05-20T20:23:04.676Z,101639.94
2023-05-20T20:25:51.084Z,101637.94
2023-05-20T20:28:36.892Z,101639.81
2023-05-20T20:31:22.967Z,101638.78
2023-05-20T20:34:09.007Z,101641.78
2023-05-20T20:36:56.340Z,101630.03
2023-05-20T20:39:42.591Z,101632.94
2023-05-20T20:42:28.726Z,101632.25
2023-05-20T20:45:15.164Z,101631.91
2023-05-20T20:48:04.672Z,101628.56
2023-05-20T20:50:50.887Z,101640.56
2023-05-20T20:53:38.419Z,101632.84
2023-05-20T20:56:25.631Z,101636.22
2023-05-20T20:59:13.394Z,101625.75
2023-05-20T21:01:59.453Z,101621.97
2023-05-20T21:04:47.275Z,101635.75
2023-05-20T21:07:33.404Z,101627.78
2023-05-20T21:10:20.651Z,101627.19
2023-05-20T21:13:06.892Z,101611.50
2023-05-20T21:15:53.667Z,101617.44
2023-05-20T21:18:40.533Z,101615.69
2023-05-20T21:21:26.876Z,101614.69
2023-05-20T21:24:12.718Z,101609.13
2023-05-20T21:27:00.011Z,101609.09
2023-05-20T21:29:46.196Z,101616.59
2023-05-20T21:32:32.700Z,101613.69
2023-05-20T21:35:19.120Z,101608.09
2023-05-20T21:38:05.310Z,101613.06
2023-05-20T21:40:51.188Z,101614.13
2023-05-20T21:43:38.684Z,101612.03
2023-05-20T21:46:24.838Z,101607.03
2023-05-20T21:49:11.039Z,101607.84
2023-05-20T21:51:57.257Z,101607.00
2023-05-20T21:54:43.810Z,101597.41
2023-05-20T21:57:29.714Z,101593.88
2023-05-20T22:00:18.894Z,101587.41
2023-05-20T22:03:05.096Z,101587.63
2023-05-20T22:05:51.669Z,101584.53
2023-05-20T22:08:37.634Z,101586.16
2023-05-20T22:11:23.864Z,101583.91
2023-05-20T22:14:10.122Z,101577.63
2023-05-20T22:16:58.785Z,101573.25
2023-05-20T22:19:44.757Z,101576.19
2023-05-20T22:22:32.258Z,101574.94
2023-05-20T22:25:18.539Z,101573.66
2023-05-20T22:28:05.237Z,101572.00
2023-05-20T22:30:51.780Z,101565.16
2023-05-20T22:33:41.370Z,101559.09
2023-05-20T22:36:33.678Z,101560.31
2023-05-20T22:39:19.616Z,101556.13
2023-05-20T22:42:06.086Z,101543.41
2023-05-20T22:44:51.882Z,101536.56
2023-05-20T22:47:37.797Z,101535.75
2023-05-20T22:50:26.182Z,101531.53
2023-05-20T22:53:12.803Z,101536.78
2023-05-20T22:55:59.757Z,101534.66
2023-05-20T22:58:46.011Z,101529.88
2023-05-20T23:01:32.500Z,101530.72
2023-05-20T23:04:19.287Z,101522.38
2023-05-20T23:07:06.879Z,101525.09
2023-05-20T23:09:52.743Z,101513.03
2023-05-20T23:12:38.922Z,101509.91
2023-05-20T23:15:25.544Z,101511.97
2023-05-20T23:18:12.127Z,101510.06
2023-05-20T23:20:58.503Z,101510.72
2023-05-20T23:23:45.817Z,101501.16
2023-05-20T23:26:34.325Z,101500.97
2023-05-20T23:29:21.374Z,101502.81
2023-05-20T23:32:08.340Z,101502.59
2023-05-20T23:34:55.123Z,101498.53
2023-05-20T23:37:42.023Z,101501.34
2023-05-20T23:40:29.574Z,101492.44
2023-05-20T23:43:15.805Z,101490.72
2023-05-20T23:46:01.804Z,101499.25
2023-05-20T23:48:48.243Z,101496.97
2023-05-20T23:51:35.449Z,101494.44
2023-05-20T23:54:22.680Z,101484.66
2023-05-20T23:57:11.689Z,101487.97
2023-05-20T23:59:57.864Z,101482.19
